sensor_id;sensor_type;location;lat;lon;timestamp;temperature;humidity
67141;DHT22;54058;52.010;5.546;2022-09-02T00:02:20;18.20;45.00
67141;DHT22;54058;52.010;5.546;2022-09-02T00:04:46;18.20;45.20
67141;DHT22;54058;52.010;5.546;2022-09-02T00:07:12;18.20;45.20
67141;DHT22;54058;52.010;5.546;2022-09-02T00:09:38;18.30;45.20
67141;DHT22;54058;52.010;5.546;2022-09-02T00:12:05;18.20;45.20
67141;DHT22;54058;52.010;5.546;2022-09-02T00:14:34;18.20;45.40
67141;DHT22;54058;52.010;5.546;2022-09-02T00:17:01;18.20;45.30
67141;DHT22;54058;52.010;5.546;2022-09-02T00:19:28;18.20;45.50
67141;DHT22;54058;52.010;5.546;2022-09-02T00:21:54;18.20;45.60
67141;DHT22;54058;52.010;5.546;2022-09-02T00:24:20;18.20;47.30
67141;DHT22;54058;52.010;5.546;2022-09-02T00:26:46;18.20;45.70
67141;DHT22;54058;52.010;5.546;2022-09-02T00:29:12;18.10;45.90
67141;DHT22;54058;52.010;5.546;2022-09-02T00:31:44;18.10;46.30
67141;DHT22;54058;52.010;5.546;2022-09-02T00:34:10;18.10;46.70
67141;DHT22;54058;52.010;5.546;2022-09-02T00:36:36;18.00;46.90
67141;DHT22;54058;52.010;5.546;2022-09-02T00:39:04;18.00;47.10
67141;DHT22;54058;52.010;5.546;2022-09-02T00:41:31;18.00;47.30
67141;DHT22;54058;52.010;5.546;2022-09-02T00:44:10;17.90;47.10
67141;DHT22;54058;52.010;5.546;2022-09-02T00:46:37;17.90;47.50
67141;DHT22;54058;52.010;5.546;2022-09-02T00:49:25;17.90;46.90
67141;DHT22;54058;52.010;5.546;2022-09-02T00:52:12;17.80;47.30
67141;DHT22;54058;52.010;5.546;2022-09-02T00:54:44;17.80;47.10
67141;DHT22;54058;52.010;5.546;2022-09-02T00:57:14;17.80;47.10
67141;DHT22;54058;52.010;5.546;2022-09-02T01:00:05;17.80;47.00
67141;DHT22;54058;52.010;5.546;2022-09-02T01:02:31;17.80;47.70
67141;DHT22;54058;52.010;5.546;2022-09-02T01:04:58;17.80;46.90
67141;DHT22;54058;52.010;5.546;2022-09-02T01:07:27;17.80;46.90
67141;DHT22;54058;52.010;5.546;2022-09-02T01:09:55;17.80;47.00
67141;DHT22;54058;52.010;5.546;2022-09-02T01:12:21;17.80;46.80
67141;DHT22;54058;52.010;5.546;2022-09-02T01:14:47;17.80;46.80
67141;DHT22;54058;52.010;5.546;2022-09-02T01:17:13;17.80;46.60
67141;DHT22;54058;52.010;5.546;2022-09-02T01:19:49;17.90;46.60
67141;DHT22;54058;52.010;5.546;2022-09-02T01:22:25;17.90;46.60
67141;DHT22;54058;52.010;5.546;2022-09-02T01:24:51;17.80;46.50
67141;DHT22;54058;52.010;5.546;2022-09-02T01:27:20;17.80;46.50
67141;DHT22;54058;52.010;5.546;2022-09-02T01:29:58;17.80;46.50
67141;DHT22;54058;52.010;5.546;2022-09-02T01:32:26;17.70;46.60
67141;DHT22;54058;52.010;5.546;2022-09-02T01:34:52;17.70;46.60
67141;DHT22;54058;52.010;5.546;2022-09-02T01:37:18;17.70;46.70
67141;DHT22;54058;52.010;5.546;2022-09-02T01:39:45;17.70;46.70
67141;DHT22;54058;52.010;5.546;2022-09-02T01:42:11;17.60;46.50
67141;DHT22;54058;52.010;5.546;2022-09-02T01:44:37;17.60;46.60
67141;DHT22;54058;52.010;5.546;2022-09-02T01:47:12;17.50;46.60
67141;DHT22;54058;52.010;5.546;2022-09-02T01:49:39;17.60;46.80
67141;DHT22;54058;52.010;5.546;2022-09-02T01:52:06;17.50;46.80
67141;DHT22;54058;52.010;5.546;2022-09-02T01:54:32;17.50;46.90
67141;DHT22;54058;52.010;5.546;2022-09-02T01:56:57;17.50;46.90
67141;DHT22;54058;52.010;5.546;2022-09-02T01:59:23;17.50;46.90
67141;DHT22;54058;52.010;5.546;2022-09-02T02:01:49;17.50;47.00
67141;DHT22;54058;52.010;5.546;2022-09-02T02:04:15;17.40;46.90
67141;DHT22;54058;52.010;5.546;2022-09-02T02:06:44;17.40;47.10
67141;DHT22;54058;52.010;5.546;2022-09-02T02:09:13;17.40;47.10
67141;DHT22;54058;52.010;5.546;2022-09-02T02:11:40;17.50;47.00
67141;DHT22;54058;52.010;5.546;2022-09-02T02:14:06;17.50;47.10
67141;DHT22;54058;52.010;5.546;2022-09-02T02:16:32;17.50;47.70
67141;DHT22;54058;52.010;5.546;2022-09-02T02:18:58;17.50;47.20
67141;DHT22;54058;52.010;5.546;2022-09-02T02:21:24;17.50;47.10
67141;DHT22;54058;52.010;5.546;2022-09-02T02:23:50;17.50;47.00
67141;DHT22;54058;52.010;5.546;2022-09-02T02:26:16;17.50;47.10
67141;DHT22;54058;52.010;5.546;2022-09-02T02:28:41;17.50;47.20
67141;DHT22;54058;52.010;5.546;2022-09-02T02:31:07;17.50;47.30
67141;DHT22;54058;52.010;5.546;2022-09-02T02:33:33;17.50;47.40
67141;DHT22;54058;52.010;5.546;2022-09-02T02:36:00;17.50;47.20
67141;DHT22;54058;52.010;5.546;2022-09-02T02:38:26;17.50;47.10
67141;DHT22;54058;52.010;5.546;2022-09-02T02:40:55;17.50;47.30
67141;DHT22;54058;52.010;5.546;2022-09-02T02:43:22;17.50;47.30
67141;DHT22;54058;52.010;5.546;2022-09-02T02:45:48;17.50;47.20
67141;DHT22;54058;52.010;5.546;2022-09-02T02:48:14;17.50;47.50
67141;DHT22;54058;52.010;5.546;2022-09-02T02:50:40;17.50;47.70
67141;DHT22;54058;52.010;5.546;2022-09-02T02:53:06;17.50;47.70
67141;DHT22;54058;52.010;5.546;2022-09-02T02:55:32;17.60;47.80
67141;DHT22;54058;52.010;5.546;2022-09-02T02:57:57;17.60;47.60
67141;DHT22;54058;52.010;5.546;2022-09-02T03:00:27;17.50;47.60
67141;DHT22;54058;52.010;5.546;2022-09-02T03:02:56;17.50;48.00
67141;DHT22;54058;52.010;5.546;2022-09-02T03:05:22;17.50;48.10
67141;DHT22;54058;52.010;5.546;2022-09-02T03:07:47;17.60;48.00
67141;DHT22;54058;52.010;5.546;2022-09-02T03:10:13;17.50;47.90
67141;DHT22;54058;52.010;5.546;2022-09-02T03:12:39;17.50;47.90
67141;DHT22;54058;52.010;5.546;2022-09-02T03:15:07;17.40;47.80
67141;DHT22;54058;52.010;5.546;2022-09-02T03:17:32;17.40;47.80
67141;DHT22;54058;52.010;5.546;2022-09-02T03:19:58;17.30;47.90
67141;DHT22;54058;52.010;5.546;2022-09-02T03:22:25;17.30;47.90
67141;DHT22;54058;52.010;5.546;2022-09-02T03:24:51;17.30;47.90
67141;DHT22;54058;52.010;5.546;2022-09-02T03:27:16;17.20;48.00
67141;DHT22;54058;52.010;5.546;2022-09-02T03:29:42;17.20;48.30
67141;DHT22;54058;52.010;5.546;2022-09-02T03:32:09;17.20;48.20
67141;DHT22;54058;52.010;5.546;2022-09-02T03:34:35;17.30;48.70
67141;DHT22;54058;52.010;5.546;2022-09-02T03:37:01;17.20;48.30
67141;DHT22;54058;52.010;5.546;2022-09-02T03:39:27;17.20;48.30
67141;DHT22;54058;52.010;5.546;2022-09-02T03:41:52;17.20;48.30
67141;DHT22;54058;52.010;5.546;2022-09-02T03:44:18;17.20;48.50
67141;DHT22;54058;52.010;5.546;2022-09-02T03:46:44;17.20;48.50
67141;DHT22;54058;52.010;5.546;2022-09-02T03:49:10;17.10;48.60
67141;DHT22;54058;52.010;5.546;2022-09-02T03:51:39;17.20;48.90
67141;DHT22;54058;52.010;5.546;2022-09-02T03:54:06;17.20;48.90
67141;DHT22;54058;52.010;5.546;2022-09-02T03:56:33;17.20;48.80
67141;DHT22;54058;52.010;5.546;2022-09-02T03:58:59;17.20;48.60
67141;DHT22;54058;52.010;5.546;2022-09-02T04:01:25;17.10;48.60
67141;DHT22;54058;52.010;5.546;2022-09-02T04:03:51;17.10;48.80
67141;DHT22;54058;52.010;5.546;2022-09-02T04:06:19;17.10;48.90
67141;DHT22;54058;52.010;5.546;2022-09-02T04:08:46;17.10;48.70
67141;DHT22;54058;52.010;5.546;2022-09-02T04:11:18;17.10;48.90
67141;DHT22;54058;52.010;5.546;2022-09-02T04:13:45;17.10;48.80
67141;DHT22;54058;52.010;5.546;2022-09-02T04:16:14;17.10;48.90
67141;DHT22;54058;52.010;5.546;2022-09-02T04:18:40;17.20;49.00
67141;DHT22;54058;52.010;5.546;2022-09-02T04:21:06;17.10;49.00
67141;DHT22;54058;52.010;5.546;2022-09-02T04:23:32;17.10;49.00
67141;DHT22;54058;52.010;5.546;2022-09-02T04:26:03;17.10;49.20
67141;DHT22;54058;52.010;5.546;2022-09-02T04:28:28;17.10;49.20
67141;DHT22;54058;52.010;5.546;2022-09-02T04:30:54;17.10;49.00
67141;DHT22;54058;52.010;5.546;2022-09-02T04:33:19;17.00;49.00
67141;DHT22;54058;52.010;5.546;2022-09-02T04:35:46;17.00;49.20
67141;DHT22;54058;52.010;5.546;2022-09-02T04:38:16;17.00;49.30
67141;DHT22;54058;52.010;5.546;2022-09-02T04:40:44;17.00;49.50
67141;DHT22;54058;52.010;5.546;2022-09-02T04:43:10;16.90;49.10
67141;DHT22;54058;52.010;5.546;2022-09-02T04:45:42;16.90;49.30
67141;DHT22;54058;52.010;5.546;2022-09-02T04:48:09;16.90;49.50
67141;DHT22;54058;52.010;5.546;2022-09-02T04:50:36;16.90;49.60
67141;DHT22;54058;52.010;5.546;2022-09-02T04:53:03;16.90;49.70
67141;DHT22;54058;52.010;5.546;2022-09-02T04:55:29;16.90;49.70
67141;DHT22;54058;52.010;5.546;2022-09-02T04:57:54;16.80;49.50
67141;DHT22;54058;52.010;5.546;2022-09-02T05:00:20;16.80;49.70
67141;DHT22;54058;52.010;5.546;2022-09-02T05:02:46;16.90;49.90
67141;DHT22;54058;52.010;5.546;2022-09-02T05:05:11;16.90;49.90
67141;DHT22;54058;52.010;5.546;2022-09-02T05:07:38;16.90;49.90
67141;DHT22;54058;52.010;5.546;2022-09-02T05:10:05;16.90;49.90
67141;DHT22;54058;52.010;5.546;2022-09-02T05:12:32;16.90;50.00
67141;DHT22;54058;52.010;5.546;2022-09-02T05:14:59;16.90;49.90
67141;DHT22;54058;52.010;5.546;2022-09-02T05:17:26;16.90;49.80
67141;DHT22;54058;52.010;5.546;2022-09-02T05:19:52;16.90;49.90
67141;DHT22;54058;52.010;5.546;2022-09-02T05:22:18;17.00;50.00
67141;DHT22;54058;52.010;5.546;2022-09-02T05:24:44;17.00;50.00
67141;DHT22;54058;52.010;5.546;2022-09-02T05:27:10;17.10;50.10
67141;DHT22;54058;52.010;5.546;2022-09-02T05:29:36;17.10;50.10
67141;DHT22;54058;52.010;5.546;2022-09-02T05:32:03;17.10;50.10
67141;DHT22;54058;52.010;5.546;2022-09-02T05:34:29;17.20;50.80
67141;DHT22;54058;52.010;5.546;2022-09-02T05:36:55;17.20;49.90
67141;DHT22;54058;52.010;5.546;2022-09-02T05:39:21;17.30;49.80
67141;DHT22;54058;52.010;5.546;2022-09-02T05:41:47;17.30;49.80
67141;DHT22;54058;52.010;5.546;2022-09-02T05:44:12;17.30;49.90
67141;DHT22;54058;52.010;5.546;2022-09-02T05:46:38;17.40;49.80
67141;DHT22;54058;52.010;5.546;2022-09-02T05:49:04;17.40;49.80
67141;DHT22;54058;52.010;5.546;2022-09-02T05:51:57;17.50;49.70
67141;DHT22;54058;52.010;5.546;2022-09-02T05:54:25;17.50;49.80
67141;DHT22;54058;52.010;5.546;2022-09-02T05:56:55;17.60;49.70
67141;DHT22;54058;52.010;5.546;2022-09-02T05:59:22;17.60;49.60
67141;DHT22;54058;52.010;5.546;2022-09-02T06:01:48;17.60;49.60
67141;DHT22;54058;52.010;5.546;2022-09-02T06:04:15;17.70;49.60
67141;DHT22;54058;52.010;5.546;2022-09-02T06:06:41;17.80;49.60
67141;DHT22;54058;52.010;5.546;2022-09-02T06:09:09;17.80;49.70
67141;DHT22;54058;52.010;5.546;2022-09-02T06:11:37;17.90;50.20
67141;DHT22;54058;52.010;5.546;2022-09-02T06:14:07;17.90;49.60
67141;DHT22;54058;52.010;5.546;2022-09-02T06:16:34;18.00;49.50
67141;DHT22;54058;52.010;5.546;2022-09-02T06:19:00;18.00;49.50
67141;DHT22;54058;52.010;5.546;2022-09-02T06:21:29;18.10;49.50
67141;DHT22;54058;52.010;5.546;2022-09-02T06:23:55;18.10;49.50
67141;DHT22;54058;52.010;5.546;2022-09-02T06:26:21;18.20;49.30
67141;DHT22;54058;52.010;5.546;2022-09-02T06:28:47;18.30;49.90
67141;DHT22;54058;52.010;5.546;2022-09-02T06:31:21;18.30;49.30
67141;DHT22;54058;52.010;5.546;2022-09-02T06:33:51;18.40;49.20
67141;DHT22;54058;52.010;5.546;2022-09-02T06:36:17;18.50;49.20
67141;DHT22;54058;52.010;5.546;2022-09-02T06:38:47;18.60;49.10
67141;DHT22;54058;52.010;5.546;2022-09-02T06:41:15;18.60;49.00
67141;DHT22;54058;52.010;5.546;2022-09-02T06:43:41;18.70;49.00
67141;DHT22;54058;52.010;5.546;2022-09-02T06:46:12;18.70;48.80
67141;DHT22;54058;52.010;5.546;2022-09-02T06:48:38;18.70;49.50
67141;DHT22;54058;52.010;5.546;2022-09-02T06:51:04;18.70;48.90
67141;DHT22;54058;52.010;5.546;2022-09-02T06:53:30;18.70;48.90
67141;DHT22;54058;52.010;5.546;2022-09-02T06:55:55;18.80;49.00
67141;DHT22;54058;52.010;5.546;2022-09-02T06:58:21;18.70;49.00
67141;DHT22;54058;52.010;5.546;2022-09-02T07:00:47;18.80;49.10
67141;DHT22;54058;52.010;5.546;2022-09-02T07:03:12;18.70;49.00
67141;DHT22;54058;52.010;5.546;2022-09-02T07:06:09;18.70;49.00
67141;DHT22;54058;52.010;5.546;2022-09-02T07:08:40;18.80;49.00
67141;DHT22;54058;52.010;5.546;2022-09-02T07:11:13;18.90;49.00
67141;DHT22;54058;52.010;5.546;2022-09-02T07:13:39;18.90;49.00
67141;DHT22;54058;52.010;5.546;2022-09-02T07:16:06;19.00;49.00
67141;DHT22;54058;52.010;5.546;2022-09-02T07:18:33;19.00;48.90
67141;DHT22;54058;52.010;5.546;2022-09-02T07:20:59;19.10;48.90
67141;DHT22;54058;52.010;5.546;2022-09-02T07:23:25;19.20;48.90
67141;DHT22;54058;52.010;5.546;2022-09-02T07:25:51;19.30;48.90
67141;DHT22;54058;52.010;5.546;2022-09-02T07:28:16;19.40;48.80
67141;DHT22;54058;52.010;5.546;2022-09-02T07:30:43;19.50;48.70
67141;DHT22;54058;52.010;5.546;2022-09-02T07:33:11;19.60;48.80
67141;DHT22;54058;52.010;5.546;2022-09-02T07:35:41;19.70;48.80
67141;DHT22;54058;52.010;5.546;2022-09-02T07:38:08;19.80;48.70
67141;DHT22;54058;52.010;5.546;2022-09-02T07:40:34;19.90;48.60
67141;DHT22;54058;52.010;5.546;2022-09-02T07:43:02;20.10;48.90
67141;DHT22;54058;52.010;5.546;2022-09-02T07:45:29;20.40;48.30
67141;DHT22;54058;52.010;5.546;2022-09-02T07:47:54;20.40;48.20
67141;DHT22;54058;52.010;5.546;2022-09-02T07:50:20;20.40;48.40
67141;DHT22;54058;52.010;5.546;2022-09-02T07:52:46;20.40;47.90
67141;DHT22;54058;52.010;5.546;2022-09-02T07:55:14;20.60;48.10
67141;DHT22;54058;52.010;5.546;2022-09-02T07:57:39;20.80;48.00
67141;DHT22;54058;52.010;5.546;2022-09-02T08:00:05;20.90;48.00
67141;DHT22;54058;52.010;5.546;2022-09-02T08:02:31;20.90;48.00
67141;DHT22;54058;52.010;5.546;2022-09-02T08:04:58;20.80;47.90
67141;DHT22;54058;52.010;5.546;2022-09-02T08:07:24;20.90;47.30
67141;DHT22;54058;52.010;5.546;2022-09-02T08:09:51;20.90;48.00
67141;DHT22;54058;52.010;5.546;2022-09-02T08:12:17;21.00;47.90
67141;DHT22;54058;52.010;5.546;2022-09-02T08:14:43;21.00;47.80
67141;DHT22;54058;52.010;5.546;2022-09-02T08:17:08;21.00;47.70
67141;DHT22;54058;52.010;5.546;2022-09-02T08:19:34;21.00;47.70
67141;DHT22;54058;52.010;5.546;2022-09-02T08:22:04;21.10;47.80
67141;DHT22;54058;52.010;5.546;2022-09-02T08:24:32;21.10;47.50
67141;DHT22;54058;52.010;5.546;2022-09-02T08:26:58;21.20;47.60
67141;DHT22;54058;52.010;5.546;2022-09-02T08:29:24;21.30;47.70
67141;DHT22;54058;52.010;5.546;2022-09-02T08:31:50;21.40;47.50
67141;DHT22;54058;52.010;5.546;2022-09-02T08:34:15;21.50;47.60
67141;DHT22;54058;52.010;5.546;2022-09-02T08:36:41;21.60;47.60
67141;DHT22;54058;52.010;5.546;2022-09-02T08:39:08;21.60;47.60
67141;DHT22;54058;52.010;5.546;2022-09-02T08:44:10;21.80;46.60
67141;DHT22;54058;52.010;5.546;2022-09-02T08:46:36;21.90;47.50
67141;DHT22;54058;52.010;5.546;2022-09-02T08:49:12;22.10;47.30
67141;DHT22;54058;52.010;5.546;2022-09-02T08:51:56;22.30;47.60
67141;DHT22;54058;52.010;5.546;2022-09-02T08:57:13;22.60;45.80
67141;DHT22;54058;52.010;5.546;2022-09-02T08:59:39;22.80;46.90
67141;DHT22;54058;52.010;5.546;2022-09-02T09:16:15;23.50;46.50
67141;DHT22;54058;52.010;5.546;2022-09-02T09:18:52;23.70;45.00
67141;DHT22;54058;52.010;5.546;2022-09-02T09:21:20;23.90;45.60
67141;DHT22;54058;52.010;5.546;2022-09-02T09:23:47;24.10;45.90
67141;DHT22;54058;52.010;5.546;2022-09-02T09:26:16;24.10;45.80
67141;DHT22;54058;52.010;5.546;2022-09-02T09:28:45;24.20;45.50
67141;DHT22;54058;52.010;5.546;2022-09-02T09:31:16;24.30;45.60
67141;DHT22;54058;52.010;5.546;2022-09-02T09:34:04;24.30;45.50
67141;DHT22;54058;52.010;5.546;2022-09-02T09:41:53;24.30;44.20
67141;DHT22;54058;52.010;5.546;2022-09-02T09:47:23;24.50;44.00
67141;DHT22;54058;52.010;5.546;2022-09-02T09:49:52;24.70;44.50
67141;DHT22;54058;52.010;5.546;2022-09-02T09:52:37;24.80;45.20
67141;DHT22;54058;52.010;5.546;2022-09-02T09:57:40;25.10;44.40
67141;DHT22;54058;52.010;5.546;2022-09-02T10:00:32;25.20;44.60
67141;DHT22;54058;52.010;5.546;2022-09-02T10:03:01;25.20;42.60
67141;DHT22;54058;52.010;5.546;2022-09-02T10:05:35;25.20;44.30
67141;DHT22;54058;52.010;5.546;2022-09-02T10:08:04;25.20;44.10
67141;DHT22;54058;52.010;5.546;2022-09-02T10:10:31;25.20;44.50
67141;DHT22;54058;52.010;5.546;2022-09-02T10:13:00;25.30;44.40
67141;DHT22;54058;52.010;5.546;2022-09-02T10:18:43;25.40;43.90
67141;DHT22;54058;52.010;5.546;2022-09-02T10:21:25;25.50;43.50
67141;DHT22;54058;52.010;5.546;2022-09-02T10:24:18;25.60;43.70
67141;DHT22;54058;52.010;5.546;2022-09-02T10:26:49;25.70;43.90
67141;DHT22;54058;52.010;5.546;2022-09-02T10:32:36;25.80;43.50
67141;DHT22;54058;52.010;5.546;2022-09-02T10:35:20;25.90;41.80
67141;DHT22;54058;52.010;5.546;2022-09-02T10:40:31;26.10;42.40
67141;DHT22;54058;52.010;5.546;2022-09-02T10:45:58;26.30;42.50
67141;DHT22;54058;52.010;5.546;2022-09-02T10:54:12;26.60;41.80
67141;DHT22;54058;52.010;5.546;2022-09-02T10:59:15;26.70;42.60
67141;DHT22;54058;52.010;5.546;2022-09-02T11:04:47;26.80;41.80
67141;DHT22;54058;52.010;5.546;2022-09-02T11:10:25;26.80;41.00
67141;DHT22;54058;52.010;5.546;2022-09-02T11:13:08;26.80;40.90
67141;DHT22;54058;52.010;5.546;2022-09-02T11:15:57;26.80;41.20
67141;DHT22;54058;52.010;5.546;2022-09-02T11:19:01;26.80;41.10
67141;DHT22;54058;52.010;5.546;2022-09-02T11:24:51;26.90;40.90
67141;DHT22;54058;52.010;5.546;2022-09-02T11:30:18;27.20;41.10
67141;DHT22;54058;52.010;5.546;2022-09-02T11:35:30;27.30;40.10
67141;DHT22;54058;52.010;5.546;2022-09-02T11:38:08;27.30;40.30
67141;DHT22;54058;52.010;5.546;2022-09-02T11:52:00;27.10;37.80
67141;DHT22;54058;52.010;5.546;2022-09-02T11:54:38;27.10;39.10
67141;DHT22;54058;52.010;5.546;2022-09-02T11:57:06;27.20;39.80
67141;DHT22;54058;52.010;5.546;2022-09-02T12:08:02;27.00;38.40
67141;DHT22;54058;52.010;5.546;2022-09-02T12:18:42;27.20;38.50
67141;DHT22;54058;52.010;5.546;2022-09-02T12:21:10;27.30;39.20
67141;DHT22;54058;52.010;5.546;2022-09-02T12:31:41;26.80;38.70
67141;DHT22;54058;52.010;5.546;2022-09-02T12:37:07;26.80;38.40
67141;DHT22;54058;52.010;5.546;2022-09-02T12:42:09;27.00;38.90
67141;DHT22;54058;52.010;5.546;2022-09-02T12:44:55;27.10;39.10
67141;DHT22;54058;52.010;5.546;2022-09-02T12:47:42;27.20;37.70
67141;DHT22;54058;52.010;5.546;2022-09-02T12:50:49;27.10;36.80
67141;DHT22;54058;52.010;5.546;2022-09-02T12:53:39;27.00;37.70
67141;DHT22;54058;52.010;5.546;2022-09-02T12:58:43;26.90;38.50
67141;DHT22;54058;52.010;5.546;2022-09-02T13:04:26;26.70;37.80
67141;DHT22;54058;52.010;5.546;2022-09-02T13:07:55;26.60;36.90
67141;DHT22;54058;52.010;5.546;2022-09-02T13:13:18;26.30;38.60
67141;DHT22;54058;52.010;5.546;2022-09-02T13:19:09;26.00;37.80
67141;DHT22;54058;52.010;5.546;2022-09-02T13:21:56;26.00;37.40
67141;DHT22;54058;52.010;5.546;2022-09-02T13:33:14;25.80;39.30
67141;DHT22;54058;52.010;5.546;2022-09-02T13:35:40;25.80;37.80
67141;DHT22;54058;52.010;5.546;2022-09-02T13:38:12;25.80;39.30
67141;DHT22;54058;52.010;5.546;2022-09-02T13:40:39;25.80;39.20
67141;DHT22;54058;52.010;5.546;2022-09-02T13:45:40;25.70;38.90
67141;DHT22;54058;52.010;5.546;2022-09-02T13:48:25;25.80;39.20
67141;DHT22;54058;52.010;5.546;2022-09-02T13:50:55;25.80;38.90
67141;DHT22;54058;52.010;5.546;2022-09-02T13:53:37;25.80;39.20
67141;DHT22;54058;52.010;5.546;2022-09-02T13:56:07;25.90;38.70
67141;DHT22;54058;52.010;5.546;2022-09-02T13:58:36;26.00;38.90
67141;DHT22;54058;52.010;5.546;2022-09-02T14:01:30;26.30;38.70
67141;DHT22;54058;52.010;5.546;2022-09-02T14:03:58;26.50;37.00
67141;DHT22;54058;52.010;5.546;2022-09-02T14:06:28;26.70;38.60
67141;DHT22;54058;52.010;5.546;2022-09-02T14:08:57;26.70;38.10
67141;DHT22;54058;52.010;5.546;2022-09-02T14:11:25;26.90;38.20
67141;DHT22;54058;52.010;5.546;2022-09-02T14:13:52;27.00;38.10
67141;DHT22;54058;52.010;5.546;2022-09-02T14:16:34;27.00;37.90
67141;DHT22;54058;52.010;5.546;2022-09-02T14:21:49;27.00;37.20
67141;DHT22;54058;52.010;5.546;2022-09-02T14:24:22;27.00;37.20
67141;DHT22;54058;52.010;5.546;2022-09-02T14:26:50;27.00;37.60
67141;DHT22;54058;52.010;5.546;2022-09-02T14:29:19;27.00;37.70
67141;DHT22;54058;52.010;5.546;2022-09-02T14:31:45;27.00;37.80
67141;DHT22;54058;52.010;5.546;2022-09-02T14:34:34;26.90;37.20
67141;DHT22;54058;52.010;5.546;2022-09-02T14:37:11;26.70;34.80
67141;DHT22;54058;52.010;5.546;2022-09-02T14:40:07;26.60;36.90
67141;DHT22;54058;52.010;5.546;2022-09-02T14:42:48;26.50;36.20
67141;DHT22;54058;52.010;5.546;2022-09-02T14:45:30;26.50;36.30
67141;DHT22;54058;52.010;5.546;2022-09-02T14:47:59;26.50;36.60
67141;DHT22;54058;52.010;5.546;2022-09-02T14:50:29;26.40;36.90
67141;DHT22;54058;52.010;5.546;2022-09-02T14:52:59;26.30;37.10
67141;DHT22;54058;52.010;5.546;2022-09-02T14:56:00;26.40;37.10
67141;DHT22;54058;52.010;5.546;2022-09-02T14:58:27;26.30;36.20
67141;DHT22;54058;52.010;5.546;2022-09-02T15:00:54;26.30;37.30
67141;DHT22;54058;52.010;5.546;2022-09-02T15:03:21;26.20;37.20
67141;DHT22;54058;52.010;5.546;2022-09-02T15:05:48;26.20;37.00
67141;DHT22;54058;52.010;5.546;2022-09-02T15:08:15;26.20;37.20
67141;DHT22;54058;52.010;5.546;2022-09-02T15:10:41;26.10;37.00
67141;DHT22;54058;52.010;5.546;2022-09-02T15:13:11;26.10;36.10
67141;DHT22;54058;52.010;5.546;2022-09-02T15:15:38;26.10;36.90
67141;DHT22;54058;52.010;5.546;2022-09-02T15:18:04;26.10;37.30
67141;DHT22;54058;52.010;5.546;2022-09-02T15:20:31;26.10;37.30
67141;DHT22;54058;52.010;5.546;2022-09-02T15:22:56;26.10;37.20
67141;DHT22;54058;52.010;5.546;2022-09-02T15:25:22;26.10;37.10
67141;DHT22;54058;52.010;5.546;2022-09-02T15:27:48;26.00;36.80
67141;DHT22;54058;52.010;5.546;2022-09-02T15:30:13;26.00;36.90
67141;DHT22;54058;52.010;5.546;2022-09-02T15:32:39;26.00;37.10
67141;DHT22;54058;52.010;5.546;2022-09-02T15:35:06;26.00;37.30
67141;DHT22;54058;52.010;5.546;2022-09-02T15:37:33;26.00;37.30
67141;DHT22;54058;52.010;5.546;2022-09-02T15:40:03;26.00;37.10
67141;DHT22;54058;52.010;5.546;2022-09-02T15:42:36;25.90;37.00
67141;DHT22;54058;52.010;5.546;2022-09-02T15:45:03;25.90;36.90
67141;DHT22;54058;52.010;5.546;2022-09-02T15:47:29;25.90;37.00
67141;DHT22;54058;52.010;5.546;2022-09-02T15:49:56;25.90;37.00
67141;DHT22;54058;52.010;5.546;2022-09-02T15:52:24;25.80;37.00
67141;DHT22;54058;52.010;5.546;2022-09-02T15:54:52;25.80;36.80
67141;DHT22;54058;52.010;5.546;2022-09-02T15:57:19;25.80;36.70
67141;DHT22;54058;52.010;5.546;2022-09-02T15:59:45;25.80;36.60
67141;DHT22;54058;52.010;5.546;2022-09-02T16:02:11;25.80;36.70
67141;DHT22;54058;52.010;5.546;2022-09-02T16:04:37;25.70;36.60
67141;DHT22;54058;52.010;5.546;2022-09-02T16:07:03;25.70;36.50
67141;DHT22;54058;52.010;5.546;2022-09-02T16:09:28;25.70;36.40
67141;DHT22;54058;52.010;5.546;2022-09-02T16:11:54;25.70;36.40
67141;DHT22;54058;52.010;5.546;2022-09-02T16:14:23;25.70;36.40
67141;DHT22;54058;52.010;5.546;2022-09-02T16:16:49;25.70;36.60
67141;DHT22;54058;52.010;5.546;2022-09-02T16:19:18;25.60;35.10
67141;DHT22;54058;52.010;5.546;2022-09-02T16:21:43;25.60;36.40
67141;DHT22;54058;52.010;5.546;2022-09-02T16:24:09;25.60;36.40
67141;DHT22;54058;52.010;5.546;2022-09-02T16:26:40;25.50;36.40
67141;DHT22;54058;52.010;5.546;2022-09-02T16:29:08;25.50;36.20
67141;DHT22;54058;52.010;5.546;2022-09-02T16:31:42;25.50;36.40
67141;DHT22;54058;52.010;5.546;2022-09-02T16:34:10;25.50;36.00
67141;DHT22;54058;52.010;5.546;2022-09-02T16:36:38;25.40;36.60
67141;DHT22;54058;52.010;5.546;2022-09-02T16:39:05;25.40;36.40
67141;DHT22;54058;52.010;5.546;2022-09-02T16:41:33;25.40;36.70
67141;DHT22;54058;52.010;5.546;2022-09-02T16:44:04;25.40;36.60
67141;DHT22;54058;52.010;5.546;2022-09-02T16:46:30;25.30;36.50
67141;DHT22;54058;52.010;5.546;2022-09-02T16:48:56;25.30;36.60
67141;DHT22;54058;52.010;5.546;2022-09-02T16:51:23;25.30;36.90
67141;DHT22;54058;52.010;5.546;2022-09-02T16:54:00;25.20;36.80
67141;DHT22;54058;52.010;5.546;2022-09-02T16:56:26;25.20;36.40
67141;DHT22;54058;52.010;5.546;2022-09-02T16:58:53;25.20;37.00
67141;DHT22;54058;52.010;5.546;2022-09-02T17:01:20;25.10;36.40
67141;DHT22;54058;52.010;5.546;2022-09-02T17:03:46;25.10;36.50
67141;DHT22;54058;52.010;5.546;2022-09-02T17:06:13;25.00;36.20
67141;DHT22;54058;52.010;5.546;2022-09-02T17:08:39;25.00;36.20
67141;DHT22;54058;52.010;5.546;2022-09-02T17:14:03;25.00;35.80
67141;DHT22;54058;52.010;5.546;2022-09-02T17:16:37;24.90;36.20
67141;DHT22;54058;52.010;5.546;2022-09-02T17:19:04;24.80;36.10
67141;DHT22;54058;52.010;5.546;2022-09-02T17:21:35;24.80;36.30
67141;DHT22;54058;52.010;5.546;2022-09-02T17:24:03;24.80;36.40
67141;DHT22;54058;52.010;5.546;2022-09-02T17:26:30;24.80;36.40
67141;DHT22;54058;52.010;5.546;2022-09-02T17:28:58;24.70;36.50
67141;DHT22;54058;52.010;5.546;2022-09-02T17:31:30;24.60;36.30
67141;DHT22;54058;52.010;5.546;2022-09-02T17:33:58;24.60;36.20
67141;DHT22;54058;52.010;5.546;2022-09-02T17:36:26;24.60;36.40
67141;DHT22;54058;52.010;5.546;2022-09-02T17:39:04;24.50;36.30
67141;DHT22;54058;52.010;5.546;2022-09-02T17:41:30;24.40;36.30
67141;DHT22;54058;52.010;5.546;2022-09-02T17:44:15;24.40;36.40
67141;DHT22;54058;52.010;5.546;2022-09-02T17:46:42;24.40;37.10
67141;DHT22;54058;52.010;5.546;2022-09-02T17:49:09;24.20;36.40
67141;DHT22;54058;52.010;5.546;2022-09-02T17:51:36;24.20;36.40
67141;DHT22;54058;52.010;5.546;2022-09-02T17:54:02;24.20;36.50
67141;DHT22;54058;52.010;5.546;2022-09-02T18:04:55;23.90;36.70
67141;DHT22;54058;52.010;5.546;2022-09-02T18:10:06;23.80;37.00
67141;DHT22;54058;52.010;5.546;2022-09-02T18:12:34;23.70;37.10